Time;durP1;ratioP1;P1;durP2;ratioP2;P2;SDS_P1;SDS_P2;PMS_P1;PMS_P2;Temp;Humidity;BMP_temperature;BMP_pressure;BME280_temperature;BME280_humidity;BME280_pressure;Samples;Min_cycle;Max_cycle;Signal;HPM_P1;HPM_P2
2021/09/04 00:01:32;;;;;;;27.73;23.45;;;11.40;99.90;;;;;;5114450;28;20394;-86
2021/09/04 00:03:58;;;;;;;29.15;24.02;;;11.40;99.90;;;;;;5113987;28;20374;-85
2021/09/04 00:06:23;;;;;;;28.90;24.43;;;11.40;99.90;;;;;;5113812;28;20379;-88
2021/09/04 00:08:49;;;;;;;29.20;24.88;;;11.40;99.90;;;;;;5114496;28;21201;-85
2021/09/04 00:11:14;;;;;;;27.92;23.70;;;11.40;99.90;;;;;;5114558;28;20451;-88
2021/09/04 00:13:40;;;;;;;27.40;23.50;;;11.40;99.90;;;;;;5114494;28;20363;-85
2021/09/04 00:16:06;;;;;;;29.00;24.42;;;11.30;99.90;;;;;;5114199;28;20461;-85
2021/09/04 00:18:34;;;;;;;29.23;22.42;;;11.40;99.90;;;;;;5112975;28;20428;-83
2021/09/04 00:21:00;;;;;;;26.75;22.83;;;11.40;99.90;;;;;;5114396;28;20391;-84
2021/09/04 00:23:26;;;;;;;28.55;23.30;;;11.30;99.90;;;;;;5113070;28;20512;-85
2021/09/04 00:25:52;;;;;;;29.67;23.05;;;11.30;99.90;;;;;;5114113;28;20462;-87
2021/09/04 00:28:18;;;;;;;28.13;23.67;;;11.30;99.90;;;;;;5114400;28;20378;-86
2021/09/04 00:30:44;;;;;;;28.83;24.20;;;11.30;99.90;;;;;;5112833;28;20804;-87
2021/09/04 00:33:10;;;;;;;33.00;24.70;;;11.20;99.90;;;;;;5113212;28;20367;-85
2021/09/04 00:35:35;;;;;;;27.90;22.53;;;11.20;99.90;;;;;;5113663;28;20386;-84
2021/09/04 00:38:01;;;;;;;29.90;23.42;;;11.20;99.90;;;;;;5113381;28;20528;-87
2021/09/04 00:40:27;;;;;;;30.73;24.42;;;11.20;99.90;;;;;;5113286;28;20367;-84
2021/09/04 00:42:52;;;;;;;30.67;24.40;;;11.20;99.90;;;;;;5113052;28;20467;-85
2021/09/04 00:45:18;;;;;;;32.23;25.87;;;11.20;99.90;;;;;;5111659;28;20375;-87
2021/09/04 00:48:10;;;;;;;24.42;21.60;;;11.20;99.90;;;;;;5111788;28;20391;-87
2021/09/04 00:50:36;;;;;;;25.70;21.90;;;11.20;99.90;;;;;;5108301;28;21295;-88
2021/09/04 00:53:04;;;;;;;29.30;22.98;;;11.10;99.90;;;;;;5112260;28;20375;-87
2021/09/04 00:55:30;;;;;;;30.50;23.58;;;11.10;99.90;;;;;;5111160;28;20971;-86
2021/09/04 00:57:56;;;;;;;27.33;23.30;;;11.10;99.90;;;;;;5109778;28;20433;-89
2021/09/04 01:00:23;;;;;;;31.85;24.33;;;11.10;99.90;;;;;;5111833;28;20887;-84
2021/09/04 01:02:49;;;;;;;29.38;23.27;;;11.00;99.90;;;;;;5111681;28;20371;-84
2021/09/04 01:05:14;;;;;;;33.65;25.00;;;11.00;99.90;;;;;;5111653;28;20373;-87
2021/09/04 01:07:42;;;;;;;31.92;25.15;;;11.00;99.90;;;;;;5111624;28;20370;-87
2021/09/04 01:10:09;;;;;;;34.90;26.00;;;11.10;99.90;;;;;;5112688;28;20382;-88
2021/09/04 01:12:36;;;;;;;34.10;25.27;;;11.10;99.90;;;;;;5113137;28;20929;-86
2021/09/04 01:15:02;;;;;;;31.55;24.50;;;11.00;99.90;;;;;;5111867;28;20370;-86
2021/09/04 01:17:28;;;;;;;30.35;24.58;;;11.00;99.90;;;;;;5112812;28;20367;-88
2021/09/04 01:19:53;;;;;;;31.65;25.35;;;11.00;99.90;;;;;;5114153;28;20706;-86
2021/09/04 01:22:19;;;;;;;27.47;22.63;;;11.00;99.90;;;;;;5113505;28;20404;-85
2021/09/04 01:24:48;;;;;;;31.48;24.52;;;11.00;99.90;;;;;;5114931;28;20370;-87
2021/09/04 01:27:15;;;;;;;29.98;24.73;;;11.00;99.90;;;;;;5114475;28;20378;-86
2021/09/04 01:29:40;;;;;;;29.90;24.67;;;10.90;99.90;;;;;;5113820;28;21154;-86
2021/09/04 01:32:06;;;;;;;31.27;24.42;;;11.00;99.90;;;;;;5115946;28;20385;-88
2021/09/04 01:34:32;;;;;;;29.83;23.92;;;10.90;99.90;;;;;;5115918;28;20371;-86
2021/09/04 01:36:58;;;;;;;32.85;24.38;;;10.90;99.90;;;;;;5114877;28;20455;-85
2021/09/04 01:39:23;;;;;;;31.17;25.30;;;10.80;99.90;;;;;;5114745;28;20486;-85
2021/09/04 01:41:49;;;;;;;31.00;24.40;;;10.80;99.90;;;;;;5115128;28;20378;-87
2021/09/04 01:44:15;;;;;;;31.67;25.05;;;10.80;99.90;;;;;;5117313;28;20797;-88
2021/09/04 01:46:41;;;;;;;33.63;25.05;;;10.80;99.90;;;;;;5116380;28;20396;-88
2021/09/04 01:49:06;;;;;;;31.40;26.00;;;10.70;99.90;;;;;;5114837;28;20390;-89
2021/09/04 01:51:32;;;;;;;33.30;26.63;;;10.70;99.90;;;;;;5115575;28;20469;-86
2021/09/04 01:53:58;;;;;;;32.38;24.17;;;10.70;99.90;;;;;;5114166;28;20375;-87
2021/09/04 01:56:24;;;;;;;34.47;25.58;;;10.70;99.90;;;;;;5115287;28;20375;-89
2021/09/04 01:58:49;;;;;;;32.67;25.95;;;10.70;99.90;;;;;;5115548;27;20864;-86
2021/09/04 02:01:15;;;;;;;43.57;29.87;;;10.70;99.90;;;;;;5113428;28;20507;-83
2021/09/04 02:03:40;;;;;;;55.33;33.13;;;10.70;99.90;;;;;;5114221;28;20379;-86
2021/09/04 02:06:06;;;;;;;55.70;34.53;;;10.70;99.90;;;;;;5114144;28;20406;-86
2021/09/04 02:08:32;;;;;;;37.70;28.23;;;10.70;99.90;;;;;;5114207;28;20443;-88
2021/09/04 02:10:58;;;;;;;37.78;27.70;;;10.70;99.90;;;;;;5113227;28;20903;-87
2021/09/04 02:13:24;;;;;;;38.92;27.35;;;10.70;99.90;;;;;;5113204;28;20378;-84
2021/09/04 02:15:51;;;;;;;43.95;28.10;;;10.70;99.90;;;;;;5109239;28;20880;-84
2021/09/04 02:18:17;;;;;;;44.60;30.38;;;10.80;99.90;;;;;;5109739;28;20394;-84
2021/09/04 02:20:43;;;;;;;40.40;27.33;;;10.80;99.90;;;;;;5110064;28;20868;-86
2021/09/04 02:23:09;;;;;;;53.28;32.60;;;10.80;99.90;;;;;;5110818;28;20377;-85
2021/09/04 02:25:36;;;;;;;56.22;33.38;;;10.90;99.90;;;;;;5093223;28;20367;-85
2021/09/04 02:28:02;;;;;;;61.92;33.13;;;10.90;99.90;;;;;;5094075;28;20381;-85
2021/09/04 02:30:28;;;;;;;75.93;32.85;;;11.00;99.90;;;;;;5111648;28;20367;-84
2021/09/04 02:32:53;;;;;;;62.08;33.55;;;11.00;99.90;;;;;;5096059;28;20375;-84
2021/09/04 02:35:19;;;;;;;58.35;33.90;;;11.00;99.90;;;;;;5096553;28;20729;-83
2021/09/04 02:37:45;;;;;;;64.10;33.90;;;11.10;99.90;;;;;;5114040;28;20399;-84
2021/09/04 02:40:11;;;;;;;54.47;32.47;;;11.10;99.90;;;;;;5113642;28;20901;-86
2021/09/04 02:42:36;;;;;;;54.50;33.63;;;11.10;99.90;;;;;;5095546;28;20390;-84
2021/09/04 02:45:03;;;;;;;56.83;34.95;;;11.20;99.90;;;;;;5113249;28;20417;-87
2021/09/04 02:47:28;;;;;;;43.10;30.63;;;11.20;99.90;;;;;;5094636;28;20394;-85
2021/09/04 02:49:54;;;;;;;40.60;27.65;;;11.30;99.90;;;;;;5113242;28;20363;-86
2021/09/04 02:52:19;;;;;;;47.28;29.75;;;11.40;99.90;;;;;;5096198;28;20383;-83
2021/09/04 02:54:45;;;;;;;47.83;29.97;;;11.40;99.90;;;;;;5114298;28;20371;-85
2021/09/04 02:57:11;;;;;;;54.88;32.42;;;11.50;99.90;;;;;;5096136;28;20375;-84
2021/09/04 02:59:36;;;;;;;69.00;37.60;;;11.60;99.90;;;;;;5094905;28;20403;-84
2021/09/04 03:02:02;;;;;;;80.23;39.60;;;11.60;99.90;;;;;;5095950;28;20466;-86
2021/09/04 03:04:28;;;;;;;78.23;40.83;;;11.70;99.90;;;;;;5093877;28;20974;-88
2021/09/04 03:06:53;;;;;;;74.60;38.88;;;11.80;99.90;;;;;;5111713;28;20371;-85
2021/09/04 03:09:19;;;;;;;85.53;41.27;;;12.00;99.90;;;;;;5111595;28;20405;-86
2021/09/04 03:11:44;;;;;;;97.93;42.97;;;12.00;99.90;;;;;;5110531;28;20382;-85
2021/09/04 03:14:10;;;;;;;94.95;44.13;;;12.10;99.90;;;;;;5110485;28;20796;-84
2021/09/04 03:16:35;;;;;;;102.23;42.60;;;12.20;99.90;;;;;;5091883;28;20385;-85
2021/09/04 03:19:01;;;;;;;118.28;44.33;;;12.20;99.90;;;;;;5091630;28;20429;-84
2021/09/04 03:21:27;;;;;;;132.43;45.67;;;12.30;99.90;;;;;;5091690;28;20729;-83
2021/09/04 03:23:53;;;;;;;88.10;40.53;;;12.40;99.90;;;;;;5110042;28;20370;-84
2021/09/04 03:26:18;;;;;;;141.82;47.20;;;12.40;99.90;;;;;;5110284;28;20367;-87
2021/09/04 03:28:44;;;;;;;108.05;42.92;;;12.50;99.90;;;;;;5109420;28;21378;-85
2021/09/04 03:31:09;;;;;;;93.97;38.37;;;12.50;99.90;;;;;;5091784;28;20397;-86
2021/09/04 03:33:35;;;;;;;106.03;40.67;;;12.50;99.90;;;;;;5091825;28;20383;-86
2021/09/04 03:36:01;;;;;;;93.55;39.78;;;12.60;99.90;;;;;;5109560;28;20412;-85
2021/09/04 03:38:27;;;;;;;85.65;38.13;;;12.50;99.90;;;;;;5109137;28;20398;-85
2021/09/04 03:40:52;;;;;;;100.03;39.92;;;12.60;99.90;;;;;;5110549;28;20371;-83
2021/09/04 03:43:18;;;;;;;99.80;40.77;;;12.50;99.90;;;;;;5109445;28;20370;-86
2021/09/04 03:45:44;;;;;;;93.30;40.40;;;12.60;99.90;;;;;;5091690;28;20370;-84
2021/09/04 03:48:09;;;;;;;93.27;39.13;;;12.60;99.90;;;;;;5093130;28;20387;-85
2021/09/04 03:50:35;;;;;;;80.55;38.75;;;12.60;99.90;;;;;;5092633;28;20443;-85
2021/09/04 03:53:00;;;;;;;118.80;42.83;;;12.60;99.90;;;;;;5094318;28;20453;-84
2021/09/04 03:55:26;;;;;;;87.40;38.10;;;12.70;99.90;;;;;;5111681;28;20488;-86
2021/09/04 03:57:51;;;;;;;77.38;35.42;;;12.70;99.90;;;;;;5112221;28;20402;-86
2021/09/04 04:00:17;;;;;;;100.07;37.60;;;12.80;99.90;;;;;;5093066;28;20410;-85
2021/09/04 04:02:43;;;;;;;78.78;34.00;;;12.80;99.90;;;;;;5113207;28;20367;-85
2021/09/04 04:05:09;;;;;;;64.00;31.50;;;12.70;99.90;;;;;;5112254;28;20378;-86
2021/09/04 04:07:35;;;;;;;107.35;36.10;;;12.70;99.90;;;;;;5112399;28;20417;-87
2021/09/04 04:10:00;;;;;;;65.33;31.23;;;12.70;99.90;;;;;;5113274;28;20849;-86
2021/09/04 04:12:26;;;;;;;75.80;31.43;;;12.60;99.90;;;;;;5093039;28;20371;-83
2021/09/04 04:14:51;;;;;;;81.88;33.03;;;12.70;99.90;;;;;;5093923;28;20469;-86
2021/09/04 04:17:17;;;;;;;49.63;27.60;;;12.70;99.90;;;;;;5108943;28;20755;-84
2021/09/04 04:19:43;;;;;;;66.80;31.13;;;12.70;99.90;;;;;;5111124;28;20402;-84
2021/09/04 04:22:08;;;;;;;93.68;34.47;;;12.60;99.90;;;;;;5096255;28;20793;-84
2021/09/04 04:24:34;;;;;;;55.43;30.70;;;12.70;99.90;;;;;;5116124;28;20864;-86
2021/09/04 04:27:01;;;;;;;89.47;33.55;;;12.70;99.90;;;;;;5097432;28;20433;-85
2021/09/04 04:29:27;;;;;;;75.65;30.65;;;12.60;99.90;;;;;;5097068;28;20378;-85
2021/09/04 04:31:53;;;;;;;102.20;33.17;;;12.70;99.90;;;;;;5116189;28;20416;-83
2021/09/04 04:34:19;;;;;;;86.50;34.13;;;12.70;99.90;;;;;;5114083;28;20383;-83
2021/09/04 04:36:44;;;;;;;120.93;35.65;;;12.70;99.90;;;;;;5114320;28;20378;-84
2021/09/04 04:39:12;;;;;;;63.60;28.77;;;12.60;99.90;;;;;;5094553;28;20398;-84
2021/09/04 04:41:37;;;;;;;70.40;32.28;;;12.70;99.90;;;;;;5094136;28;20461;-84
2021/09/04 04:44:03;;;;;;;51.87;28.47;;;12.80;99.90;;;;;;5094562;28;20520;-85
2021/09/04 04:46:29;;;;;;;63.72;31.00;;;12.80;99.90;;;;;;5112032;28;20416;-85
2021/09/04 04:48:54;;;;;;;56.15;29.90;;;12.90;99.90;;;;;;5112414;28;20379;-86
2021/09/04 04:51:20;;;;;;;96.70;35.57;;;13.00;99.90;;;;;;5111998;28;20374;-84
2021/09/04 04:53:45;;;;;;;106.70;36.37;;;13.00;99.90;;;;;;5094115;28;20381;-84
2021/09/04 04:56:11;;;;;;;73.55;34.63;;;13.10;99.90;;;;;;5094067;28;20417;-82
2021/09/04 04:58:37;;;;;;;117.82;38.35;;;13.00;99.90;;;;;;5112162;28;20407;-87
2021/09/04 05:01:03;;;;;;;91.27;36.33;;;13.00;99.90;;;;;;5111692;28;20367;-86
2021/09/04 05:03:28;;;;;;;96.67;37.37;;;13.00;99.90;;;;;;5094160;28;20949;-85
2021/09/04 05:05:54;;;;;;;79.00;36.65;;;13.10;99.90;;;;;;5093927;28;20404;-86
2021/09/04 05:08:20;;;;;;;110.57;40.07;;;13.10;99.90;;;;;;5112815;28;20474;-87
2021/09/04 05:10:47;;;;;;;69.60;36.53;;;13.10;99.90;;;;;;5113300;28;20410;-85
2021/09/04 05:13:12;;;;;;;90.25;38.45;;;13.20;99.90;;;;;;5112297;28;20716;-86
2021/09/04 05:15:38;;;;;;;79.13;38.00;;;13.30;99.90;;;;;;5114568;28;20446;-86
2021/09/04 05:18:04;;;;;;;79.10;37.57;;;13.40;99.90;;;;;;5112304;28;20442;-84
2021/09/04 05:20:29;;;;;;;67.90;36.13;;;13.50;99.90;;;;;;5093862;28;20382;-87
2021/09/04 05:22:55;;;;;;;101.63;40.15;;;13.60;99.90;;;;;;5111461;28;20370;-84
2021/09/04 05:25:21;;;;;;;85.53;38.13;;;13.60;99.90;;;;;;5093617;28;20461;-84
2021/09/04 05:27:46;;;;;;;93.50;38.03;;;13.70;99.90;;;;;;5112232;28;20367;-84
2021/09/04 05:30:12;;;;;;;81.55;38.65;;;13.80;99.90;;;;;;5094104;28;20379;-87
2021/09/04 05:32:39;;;;;;;70.50;33.80;;;13.80;99.90;;;;;;5111712;28;20371;-85
2021/09/04 05:35:05;;;;;;;65.97;34.90;;;13.80;99.90;;;;;;5111650;28;20370;-85
2021/09/04 05:37:31;;;;;;;69.35;35.47;;;13.80;99.90;;;;;;5111495;28;20436;-86
2021/09/04 05:39:56;;;;;;;54.72;30.60;;;13.80;99.90;;;;;;5111829;28;20359;-87
2021/09/04 05:42:22;;;;;;;66.57;32.83;;;13.80;99.90;;;;;;5112102;28;20378;-86
2021/09/04 05:44:47;;;;;;;57.07;32.50;;;13.80;99.90;;;;;;5093648;28;20367;-83
2021/09/04 05:47:13;;;;;;;51.05;30.65;;;13.80;99.90;;;;;;5110897;28;20482;-85
2021/09/04 05:49:39;;;;;;;59.30;31.07;;;13.90;99.90;;;;;;5093607;28;20414;-85
2021/09/04 05:52:05;;;;;;;51.33;29.77;;;14.00;99.90;;;;;;5109755;28;20359;-84
2021/09/04 05:54:31;;;;;;;56.53;31.50;;;14.10;99.90;;;;;;5111375;28;20876;-84
2021/09/04 05:56:56;;;;;;;57.40;31.23;;;14.10;99.90;;;;;;5113380;28;20382;-84
2021/09/04 05:59:22;;;;;;;53.90;30.40;;;14.10;99.90;;;;;;5111525;28;20395;-86
2021/09/04 06:01:48;;;;;;;47.77;27.87;;;14.10;99.90;;;;;;5112350;28;20359;-85
2021/09/04 06:04:14;;;;;;;54.27;31.33;;;14.20;99.90;;;;;;5096326;28;20939;-84
2021/09/04 06:06:40;;;;;;;51.70;29.33;;;14.10;99.90;;;;;;5115406;28;20432;-85
2021/09/04 06:09:06;;;;;;;47.45;28.77;;;14.20;99.90;;;;;;5115260;28;20466;-84
2021/09/04 06:11:32;;;;;;;44.80;26.15;;;14.30;99.90;;;;;;5094791;28;20399;-87
2021/09/04 06:13:59;;;;;;;41.03;25.47;;;14.40;99.90;;;;;;5112256;28;20377;-82
2021/09/04 06:16:25;;;;;;;40.97;25.70;;;14.50;99.90;;;;;;5113363;28;20382;-85
2021/09/04 06:18:50;;;;;;;42.83;26.33;;;14.50;99.90;;;;;;5111852;28;20448;-84
2021/09/04 06:21:16;;;;;;;39.20;26.55;;;14.60;99.90;;;;;;5109907;28;20413;-84
2021/09/04 06:23:42;;;;;;;39.47;24.33;;;14.60;99.90;;;;;;5112682;28;20378;-85
2021/09/04 06:26:07;;;;;;;39.87;24.27;;;14.60;99.90;;;;;;5112657;28;21214;-83
2021/09/04 06:28:33;;;;;;;40.75;23.88;;;14.70;99.90;;;;;;5093450;28;20393;-86
2021/09/04 06:30:59;;;;;;;35.40;22.40;;;14.70;99.90;;;;;;5093540;28;20375;-85
2021/09/04 06:33:24;;;;;;;33.23;22.87;;;14.80;99.90;;;;;;5112105;28;20371;-83
2021/09/04 06:35:50;;;;;;;39.83;23.63;;;14.80;99.90;;;;;;5113292;28;20465;-85
2021/09/04 06:38:16;;;;;;;30.07;21.97;;;14.90;99.90;;;;;;5113560;28;20387;-81
2021/09/04 06:40:41;;;;;;;37.63;24.08;;;15.00;99.90;;;;;;5115610;28;20375;-85
2021/09/04 06:43:07;;;;;;;34.45;24.42;;;15.00;99.90;;;;;;5097392;28;20868;-86
2021/09/04 06:45:33;;;;;;;35.97;24.33;;;15.10;99.90;;;;;;5114002;28;20368;-86
2021/09/04 06:47:58;;;;;;;38.40;25.25;;;15.20;99.90;;;;;;5100919;28;20379;-87
2021/09/04 06:50:25;;;;;;;34.65;24.13;;;15.20;99.90;;;;;;5115448;28;20371;-85
2021/09/04 06:52:51;;;;;;;35.97;24.08;;;15.10;99.90;;;;;;5115057;28;20371;-85
2021/09/04 06:55:17;;;;;;;33.47;23.90;;;15.00;99.90;;;;;;5093589;28;20745;-86
2021/09/04 06:57:43;;;;;;;33.37;23.60;;;15.00;99.90;;;;;;5111780;28;20484;-84
2021/09/04 07:00:10;;;;;;;38.22;24.95;;;15.10;99.90;;;;;;5093193;28;20406;-85
2021/09/04 07:02:36;;;;;;;36.55;24.40;;;15.10;99.90;;;;;;5093503;28;20375;-87
2021/09/04 07:05:03;;;;;;;40.43;24.13;;;15.00;99.90;;;;;;5110104;28;20465;-83
2021/09/04 07:07:29;;;;;;;35.15;24.58;;;14.90;99.90;;;;;;5097035;28;20409;-86
2021/09/04 07:09:55;;;;;;;34.25;24.15;;;14.80;99.90;;;;;;5092080;28;20382;-84
2021/09/04 07:12:23;;;;;;;36.30;24.17;;;14.80;99.90;;;;;;5109623;28;20379;-85
2021/09/04 07:14:48;;;;;;;36.70;24.60;;;14.90;99.90;;;;;;5112179;28;20520;-85
2021/09/04 07:17:14;;;;;;;39.60;25.03;;;15.00;99.90;;;;;;5110880;28;20458;-87
2021/09/04 07:19:39;;;;;;;37.67;24.92;;;15.10;99.90;;;;;;5110646;28;20445;-86
2021/09/04 07:22:05;;;;;;;36.93;24.37;;;15.20;99.90;;;;;;5110429;28;20390;-86
2021/09/04 07:24:31;;;;;;;37.50;25.23;;;15.20;99.90;;;;;;5110906;28;20419;-85
2021/09/04 07:26:57;;;;;;;35.65;24.63;;;15.30;99.90;;;;;;5092571;28;20359;-83
2021/09/04 07:29:23;;;;;;;35.92;23.85;;;15.20;99.90;;;;;;5111473;28;20494;-89
2021/09/04 07:31:49;;;;;;;35.65;24.88;;;15.30;99.90;;;;;;5111840;28;20471;-85
2021/09/04 07:34:14;;;;;;;39.95;24.92;;;15.30;99.90;;;;;;5111114;28;20442;-84
2021/09/04 07:36:40;;;;;;;36.67;24.47;;;15.20;99.90;;;;;;5110173;28;20382;-85
2021/09/04 07:39:05;;;;;;;34.83;23.83;;;15.30;99.90;;;;;;5110374;28;20410;-85
2021/09/04 07:41:31;;;;;;;35.20;23.33;;;15.50;99.90;;;;;;5110248;28;20984;-87
2021/09/04 07:43:56;;;;;;;31.63;23.53;;;15.50;99.90;;;;;;5110417;28;20374;-84
2021/09/04 07:46:23;;;;;;;34.97;23.10;;;15.60;99.90;;;;;;5110101;28;20864;-85
2021/09/04 07:48:49;;;;;;;36.55;24.00;;;15.70;99.90;;;;;;5110864;28;20379;-84
2021/09/04 07:51:14;;;;;;;32.13;23.08;;;15.70;99.90;;;;;;5109966;28;20378;-85
2021/09/04 07:53:40;;;;;;;33.80;22.80;;;15.90;99.90;;;;;;5108896;28;20359;-84
2021/09/04 07:56:06;;;;;;;33.25;22.30;;;15.90;99.90;;;;;;5110591;28;21245;-83
2021/09/04 07:58:31;;;;;;;36.43;23.30;;;16.10;99.90;;;;;;5113036;28;20386;-84
2021/09/04 08:00:57;;;;;;;33.20;22.13;;;16.10;99.90;;;;;;5112692;28;20374;-84
2021/09/04 08:03:22;;;;;;;35.90;22.83;;;16.10;99.90;;;;;;5094989;28;20414;-85
2021/09/04 08:05:48;;;;;;;32.93;21.60;;;16.00;99.90;;;;;;5112994;28;20374;-83
2021/09/04 08:08:13;;;;;;;35.37;22.93;;;16.00;99.90;;;;;;5113088;28;20375;-84
2021/09/04 08:10:43;;;;;;;38.90;22.87;;;15.90;99.90;;;;;;5112721;28;20483;-83
2021/09/04 08:13:10;;;;;;;34.10;22.23;;;16.00;99.90;;;;;;5124554;27;20441;-84
2021/09/04 08:15:36;;;;;;;35.70;22.90;;;16.00;99.90;;;;;;5114288;27;20373;-84
2021/09/04 08:18:02;;;;;;;32.43;22.30;;;16.00;99.90;;;;;;5114128;27;20992;-82
2021/09/04 08:20:27;;;;;;;35.13;22.47;;;16.10;99.90;;;;;;5114243;27;20396;-85
2021/09/04 08:22:53;;;;;;;33.58;21.73;;;16.30;99.90;;;;;;5126559;27;20827;-83
2021/09/04 08:25:18;;;;;;;28.60;20.23;;;16.50;99.90;;;;;;5116684;27;20868;-85
2021/09/04 08:27:44;;;;;;;32.45;19.65;;;16.70;99.90;;;;;;5114822;27;20385;-83
2021/09/04 08:30:10;;;;;;;31.67;20.03;;;16.80;99.90;;;;;;5114080;27;20381;-84
2021/09/04 08:32:36;;;;;;;31.13;20.17;;;17.00;99.90;;;;;;5132388;27;21023;-84
2021/09/04 08:35:01;;;;;;;29.27;19.23;;;17.00;99.90;;;;;;5134587;27;20421;-85
2021/09/04 08:37:27;;;;;;;28.63;19.05;;;17.00;99.90;;;;;;5132569;27;20881;-85
2021/09/04 08:39:53;;;;;;;29.10;18.93;;;17.10;99.90;;;;;;5133624;27;20920;-86
2021/09/04 08:42:19;;;;;;;28.98;19.05;;;17.20;99.90;;;;;;5133249;27;20723;-86
2021/09/04 08:44:45;;;;;;;26.23;18.35;;;17.20;99.90;;;;;;5098237;28;20404;-85
2021/09/04 08:47:11;;;;;;;29.40;18.35;;;17.30;99.90;;;;;;5112233;28;20392;-84
2021/09/04 08:49:38;;;;;;;26.58;17.30;;;17.20;99.90;;;;;;5093726;28;20733;-83
2021/09/04 08:52:07;;;;;;;24.35;17.00;;;17.30;99.90;;;;;;5094894;28;20388;-85
2021/09/04 08:54:33;;;;;;;27.23;18.02;;;17.50;99.90;;;;;;5094753;28;20874;-84
2021/09/04 08:56:59;;;;;;;29.23;18.05;;;17.40;99.90;;;;;;5113163;28;20367;-84
2021/09/04 08:59:25;;;;;;;27.15;17.80;;;17.40;99.90;;;;;;5094602;28;20403;-84
2021/09/04 09:01:50;;;;;;;29.83;17.67;;;17.40;99.90;;;;;;5112069;28;20374;-86
2021/09/04 09:04:18;;;;;;;22.45;16.80;;;17.50;99.90;;;;;;5111529;28;20952;-83
2021/09/04 09:06:45;;;;;;;24.13;17.63;;;17.60;99.90;;;;;;5109953;27;20421;-85
2021/09/04 09:09:18;;;;;;;28.10;17.92;;;17.80;99.90;;;;;;5132050;27;20366;-84
2021/09/04 09:11:45;;;;;;;27.25;18.00;;;17.70;99.90;;;;;;5113266;27;20402;-84
2021/09/04 09:14:11;;;;;;;28.13;17.90;;;17.70;99.90;;;;;;5131766;27;20433;-84
2021/09/04 09:16:57;;;;;;;27.73;17.27;;;17.80;99.90;;;;;;5113117;27;20380;-85
2021/09/04 09:19:28;;;;;;;31.25;18.08;;;17.90;99.90;;;;;;5130680;27;20431;-84
2021/09/04 09:21:56;;;;;;;25.92;17.17;;;18.00;99.90;;;;;;5113693;27;20402;-84
2021/09/04 09:24:23;;;;;;;26.13;18.10;;;18.20;99.90;;;;;;5092369;28;21163;-84
2021/09/04 09:26:56;;;;;;;26.67;17.08;;;18.20;99.90;;;;;;5110091;28;20373;-86
2021/09/04 09:29:33;;;;;;;27.25;17.52;;;18.30;99.90;;;;;;5089305;28;20391;-84
2021/09/04 09:32:05;;;;;;;28.15;17.08;;;18.30;99.90;;;;;;5089540;28;20421;-86
2021/09/04 09:34:42;;;;;;;27.57;17.50;;;18.40;99.90;;;;;;5088517;28;20435;-89
2021/09/04 09:37:11;;;;;;;26.58;16.83;;;18.20;99.90;;;;;;5109231;28;20375;-88
2021/09/04 09:39:43;;;;;;;27.00;17.05;;;18.20;99.90;;;;;;5094129;28;20394;-85
2021/09/04 09:42:11;;;;;;;25.57;16.60;;;18.10;99.90;;;;;;5093453;28;20377;-86
2021/09/04 09:44:38;;;;;;;25.13;16.92;;;18.10;99.90;;;;;;5112800;28;20371;-86
2021/09/04 09:47:13;;;;;;;28.27;17.40;;;17.90;99.90;;;;;;5108770;28;20383;-86
2021/09/04 09:49:43;;;;;;;25.08;16.88;;;17.90;99.90;;;;;;5109221;28;20407;-86
2021/09/04 09:52:10;;;;;;;28.90;17.58;;;17.80;99.90;;;;;;5092375;28;20375;-88
2021/09/04 09:54:37;;;;;;;28.85;17.52;;;17.80;99.90;;;;;;5111156;28;20382;-85
2021/09/04 09:57:10;;;;;;;27.23;16.45;;;17.80;99.90;;;;;;5111047;28;20405;-86
2021/09/04 09:59:38;;;;;;;26.73;16.50;;;17.80;99.90;;;;;;5092990;28;20402;-83
2021/09/04 10:02:10;;;;;;;29.92;17.50;;;17.70;99.90;;;;;;5094827;28;20375;-85
2021/09/04 10:04:37;;;;;;;25.40;16.00;;;17.70;99.90;;;;;;5111533;28;20378;-84
2021/09/04 10:07:05;;;;;;;22.92;15.70;;;17.70;99.90;;;;;;5109494;28;20371;-83
2021/09/04 10:09:31;;;;;;;26.77;17.70;;;18.00;99.90;;;;;;5093792;28;20412;-87
2021/09/04 10:11:58;;;;;;;26.33;16.42;;;17.90;99.90;;;;;;5111134;28;20377;-84
2021/09/04 10:14:24;;;;;;;27.83;16.70;;;18.10;99.90;;;;;;5111713;28;20395;-85
2021/09/04 10:17:02;;;;;;;25.30;16.23;;;18.00;99.90;;;;;;5095029;28;20371;-88
2021/09/04 10:19:30;;;;;;;27.98;16.27;;;18.00;99.90;;;;;;5092776;28;20991;-87
2021/09/04 10:22:04;;;;;;;23.02;15.02;;;18.10;99.90;;;;;;5099685;28;20374;-85
2021/09/04 10:24:42;;;;;;;21.23;15.00;;;18.10;99.90;;;;;;5092517;28;21203;-84
2021/09/04 10:27:13;;;;;;;23.83;14.75;;;18.20;99.90;;;;;;5093765;28;20412;-85
2021/09/04 10:29:45;;;;;;;24.13;14.88;;;18.30;99.90;;;;;;5110788;28;20411;-87
2021/09/04 10:32:16;;;;;;;21.35;13.85;;;18.40;99.90;;;;;;5111391;28;20371;-87
2021/09/04 10:34:44;;;;;;;22.85;14.50;;;18.50;99.90;;;;;;5091055;28;20722;-85
2021/09/04 10:37:16;;;;;;;21.30;13.63;;;18.50;99.90;;;;;;5111233;28;20375;-85
2021/09/04 10:40:03;;;;;;;22.52;14.68;;;18.30;99.90;;;;;;5111607;28;20401;-88
2021/09/04 10:42:38;;;;;;;20.08;13.65;;;18.20;99.90;;;;;;5092246;28;20390;-87
2021/09/04 10:45:17;;;;;;;20.70;13.50;;;18.10;99.90;;;;;;5112148;28;20405;-86
2021/09/04 10:47:47;;;;;;;18.52;12.93;;;18.20;99.90;;;;;;5093116;28;20969;-84
2021/09/04 10:50:18;;;;;;;22.02;12.77;;;18.40;99.90;;;;;;5095475;28;20809;-85
2021/09/04 10:52:56;;;;;;;18.60;11.77;;;18.50;99.90;;;;;;5111304;28;20375;-85
2021/09/04 10:55:33;;;;;;;20.50;12.03;;;18.60;99.90;;;;;;5089047;28;20405;-83
2021/09/04 10:58:40;;;;;;;22.50;12.85;;;18.50;99.90;;;;;;5091204;28;20395;-85
2021/09/04 11:01:06;;;;;;;30.98;13.32;;;18.20;99.90;;;;;;5111357;28;20436;-85
2021/09/04 11:03:41;;;;;;;20.50;11.87;;;18.10;99.90;;;;;;5090945;28;20884;-86
2021/09/04 11:06:18;;;;;;;17.77;11.55;;;18.00;99.90;;;;;;5092736;28;20443;-84
2021/09/04 11:08:45;;;;;;;16.97;11.37;;;18.00;99.90;;;;;;5109732;28;20872;-86
2021/09/04 11:11:25;;;;;;;16.48;11.02;;;18.10;99.90;;;;;;5115690;28;20456;-83
2021/09/04 11:14:14;;;;;;;16.23;10.97;;;18.30;99.90;;;;;;5112824;28;20386;-85
2021/09/04 11:16:49;;;;;;;18.85;11.52;;;18.30;99.90;;;;;;5071311;28;20754;-86
2021/09/04 11:19:21;;;;;;;18.17;11.02;;;18.20;99.90;;;;;;5115719;28;20615;-85
2021/09/04 11:22:14;;;;;;;19.42;11.07;;;18.20;99.90;;;;;;5111253;28;20393;-84
2021/09/04 11:24:42;;;;;;;18.05;10.32;;;18.40;99.90;;;;;;5095476;28;20379;-82
2021/09/04 11:27:11;;;;;;;15.25;9.77;;;18.40;99.90;;;;;;5112645;28;20370;-85
2021/09/04 11:29:44;;;;;;;20.42;11.15;;;18.50;99.90;;;;;;5091150;28;20391;-84
2021/09/04 11:32:19;;;;;;;16.20;11.45;;;18.80;99.90;;;;;;5092719;28;20417;-86
2021/09/04 11:34:48;;;;;;;16.60;11.93;;;18.80;99.90;;;;;;5099544;28;20419;-87
2021/09/04 11:37:18;;;;;;;19.25;12.05;;;18.90;99.90;;;;;;5118278;28;20417;-82
2021/09/04 11:39:45;;;;;;;17.65;11.45;;;19.00;99.90;;;;;;5096988;28;20410;-85
2021/09/04 11:42:16;;;;;;;18.63;12.03;;;19.20;99.90;;;;;;5094614;28;20458;-83
2021/09/04 11:44:50;;;;;;;17.77;12.20;;;18.80;99.90;;;;;;5099317;28;20438;-84
2021/09/04 11:47:16;;;;;;;16.40;11.57;;;18.70;99.90;;;;;;5098157;28;20387;-85
2021/09/04 11:49:57;;;;;;;16.67;10.87;;;18.70;99.90;;;;;;5118551;28;20891;-86
2021/09/04 11:52:34;;;;;;;18.52;11.48;;;18.90;99.90;;;;;;5116316;28;20370;-84
2021/09/04 11:55:06;;;;;;;17.45;11.13;;;19.00;99.90;;;;;;5116399;28;20390;-86
2021/09/04 11:57:34;;;;;;;14.88;10.55;;;18.90;99.90;;;;;;5097343;28;20390;-83
2021/09/04 12:00:16;;;;;;;18.45;11.70;;;18.90;99.90;;;;;;5113273;28;20486;-83
2021/09/04 12:02:48;;;;;;;15.95;11.27;;;18.90;99.90;;;;;;5112301;28;20378;-85
2021/09/04 12:05:14;;;;;;;16.83;10.67;;;18.80;99.90;;;;;;5097801;28;20378;-84
2021/09/04 12:07:41;;;;;;;20.17;10.95;;;18.90;99.90;;;;;;5117336;28;20378;-84
2021/09/04 12:10:28;;;;;;;16.05;10.52;;;19.20;99.90;;;;;;5118125;28;20374;-85
2021/09/04 12:13:03;;;;;;;16.93;10.77;;;19.50;99.90;;;;;;5097560;28;20382;-85
2021/09/04 12:15:32;;;;;;;18.42;10.88;;;19.60;99.90;;;;;;5115635;28;20387;-87
2021/09/04 12:18:03;;;;;;;16.40;10.70;;;19.70;99.90;;;;;;5095507;28;20385;-87
2021/09/04 12:20:34;;;;;;;15.10;10.45;;;19.80;99.90;;;;;;5114743;28;20400;-91
2021/09/04 12:23:18;;;;;;;14.90;9.98;;;20.10;99.90;;;;;;5098622;28;20387;-84
2021/09/04 12:25:46;;;;;;;15.63;9.35;;;20.40;99.90;;;;;;5094073;28;20395;-87
2021/09/04 12:28:13;;;;;;;15.70;11.03;;;20.60;99.90;;;;;;5096977;28;20385;-83